Time;durP1;ratioP1;P1;durP2;ratioP2;P2;SDS_P1;SDS_P2;PMS_P1;PMS_P2;Temp;Humidity;BMP_temperature;BMP_pressure;BME280_temperature;BME280_humidity;BME280_pressure;Samples;Min_cycle;Max_cycle;Signal;HPM_P1;HPM_P2
2023/12/04 00:00:35;;;;;;;36.85;22.80;;;0.20;99.90;;;;;;5032929;28;20038;-74
2023/12/04 00:03:01;;;;;;;37.78;23.67;;;0.20;99.90;;;;;;5016007;28;20045;-75
2023/12/04 00:05:27;;;;;;;37.38;23.20;;;0.20;99.90;;;;;;5016079;28;20077;-75
2023/12/04 00:07:53;;;;;;;38.10;23.60;;;0.30;99.90;;;;;;5033666;28;20049;-76
2023/12/04 00:10:18;;;;;;;37.08;23.85;;;0.20;99.90;;;;;;5030361;28;20048;-74
2023/12/04 00:12:44;;;;;;;39.65;23.42;;;0.30;99.90;;;;;;5032260;28;20049;-75
2023/12/04 00:15:10;;;;;;;36.13;21.75;;;0.20;99.90;;;;;;5031272;28;20053;-75
2023/12/04 00:17:39;;;;;;;40.33;25.05;;;0.20;99.90;;;;;;5033450;28;20598;-75
2023/12/04 00:20:08;;;;;;;36.28;24.67;;;0.20;99.90;;;;;;5031186;28;20065;-75
2023/12/04 00:22:33;;;;;;;38.97;24.90;;;0.20;99.90;;;;;;5033203;28;20104;-75
2023/12/04 00:24:59;;;;;;;37.58;23.75;;;0.20;99.90;;;;;;5030063;28;20057;-75
2023/12/04 00:27:26;;;;;;;33.65;22.42;;;0.20;99.90;;;;;;5015191;28;20041;-75
2023/12/04 00:29:55;;;;;;;34.40;20.95;;;0.20;99.90;;;;;;5030268;28;20053;-75
2023/12/04 00:32:21;;;;;;;42.85;24.25;;;0.20;99.90;;;;;;5015462;28;20049;-75
2023/12/04 00:34:47;;;;;;;37.20;24.55;;;0.20;99.90;;;;;;5030572;28;20053;-75
2023/12/04 00:37:13;;;;;;;39.42;24.83;;;0.30;99.90;;;;;;5032164;28;20557;-75
2023/12/04 00:39:38;;;;;;;35.45;23.10;;;0.20;99.90;;;;;;5031767;28;20048;-75
2023/12/04 00:42:04;;;;;;;39.55;24.35;;;0.20;99.90;;;;;;5032319;28;20360;-75
2023/12/04 00:44:30;;;;;;;36.70;24.33;;;0.20;99.90;;;;;;5031560;28;20487;-75
2023/12/04 00:46:56;;;;;;;37.55;23.90;;;0.20;99.90;;;;;;5030165;28;20049;-75
2023/12/04 00:49:22;;;;;;;39.97;24.67;;;0.40;99.90;;;;;;5014473;28;20433;-75
2023/12/04 00:51:47;;;;;;;37.85;24.25;;;0.20;99.90;;;;;;5031325;28;20068;-74
2023/12/04 00:54:13;;;;;;;38.55;24.92;;;0.20;99.90;;;;;;5014859;28;20076;-75
2023/12/04 00:56:39;;;;;;;35.95;23.73;;;0.20;99.90;;;;;;4998858;28;20057;-75
2023/12/04 00:59:06;;;;;;;37.88;23.25;;;0.20;99.90;;;;;;5031345;28;20054;-75
2023/12/04 01:01:32;;;;;;;37.97;24.33;;;0.20;99.90;;;;;;5031389;28;20071;-75
2023/12/04 01:03:59;;;;;;;29.10;18.55;;;0.20;99.90;;;;;;5032664;28;20049;-75
2023/12/04 01:06:25;;;;;;;38.17;22.63;;;0.20;99.90;;;;;;5014831;28;20050;-75
2023/12/04 01:08:52;;;;;;;37.80;23.85;;;0.20;99.90;;;;;;5015056;28;20064;-75
2023/12/04 01:11:21;;;;;;;38.47;23.77;;;1.00;99.90;;;;;;5014324;28;20049;-74
2023/12/04 01:13:48;;;;;;;42.72;25.95;;;0.20;99.90;;;;;;5015385;28;20392;-75
2023/12/04 01:16:14;;;;;;;37.35;22.70;;;0.20;99.90;;;;;;5031185;28;20470;-74
2023/12/04 01:18:40;;;;;;;38.78;25.20;;;0.10;99.90;;;;;;5014998;28;20053;-74
2023/12/04 01:21:07;;;;;;;39.88;22.85;;;0.70;99.90;;;;;;5030827;28;20049;-75
2023/12/04 01:23:33;;;;;;;39.85;24.30;;;0.20;99.90;;;;;;5032347;28;20085;-75
2023/12/04 01:25:58;;;;;;;39.47;25.60;;;0.10;99.90;;;;;;5030999;28;20088;-75
2023/12/04 01:28:24;;;;;;;38.80;25.23;;;0.10;99.90;;;;;;5031097;28;20050;-75
2023/12/04 01:30:50;;;;;;;35.28;23.52;;;0.10;99.90;;;;;;5031586;28;20045;-75
2023/12/04 01:33:16;;;;;;;36.03;22.77;;;0.70;99.90;;;;;;5014244;28;20057;-74
2023/12/04 01:35:41;;;;;;;36.35;22.90;;;0.20;99.90;;;;;;5031374;28;20058;-75
2023/12/04 01:38:08;;;;;;;35.70;23.42;;;0.40;99.90;;;;;;5030880;28;20498;-75
2023/12/04 01:40:33;;;;;;;36.72;22.88;;;0.30;99.90;;;;;;5000348;28;20050;-74
2023/12/04 01:42:59;;;;;;;35.85;23.65;;;0.30;99.90;;;;;;5018626;28;20053;-75
2023/12/04 01:45:25;;;;;;;34.00;22.40;;;0.20;99.90;;;;;;5018144;28;20048;-75
2023/12/04 01:47:51;;;;;;;36.20;24.23;;;0.20;99.90;;;;;;5018766;28;20116;-75
2023/12/04 01:50:17;;;;;;;36.13;23.77;;;0.20;99.90;;;;;;5035600;28;20092;-74
2023/12/04 01:52:42;;;;;;;30.20;19.40;;;0.20;99.90;;;;;;5018625;28;20099;-75
2023/12/04 01:55:10;;;;;;;38.05;23.02;;;0.40;99.90;;;;;;5034035;28;20045;-76
2023/12/04 01:57:36;;;;;;;32.72;21.13;;;0.20;99.90;;;;;;5018326;28;20056;-75
2023/12/04 02:00:02;;;;;;;35.58;22.88;;;0.20;99.90;;;;;;5034434;28;20461;-75
2023/12/04 02:02:29;;;;;;;33.10;21.98;;;0.20;99.90;;;;;;5017823;28;20640;-75
2023/12/04 02:04:57;;;;;;;37.25;23.40;;;0.20;99.90;;;;;;5033929;28;20049;-74
2023/12/04 02:07:23;;;;;;;39.25;23.73;;;0.10;99.90;;;;;;5034317;28;20119;-74
2023/12/04 02:09:50;;;;;;;37.95;22.90;;;0.30;99.90;;;;;;5018178;28;20084;-74
2023/12/04 02:12:16;;;;;;;32.47;21.55;;;0.20;99.90;;;;;;5035153;28;20389;-74
2023/12/04 02:14:43;;;;;;;35.08;22.13;;;0.10;99.90;;;;;;5034424;28;20045;-74
2023/12/04 02:17:09;;;;;;;36.13;22.15;;;0.80;99.90;;;;;;5034389;28;20056;-76
2023/12/04 02:19:36;;;;;;;38.97;24.58;;;0.20;99.90;;;;;;5034208;28;20061;-74
2023/12/04 02:22:01;;;;;;;39.05;23.90;;;0.20;99.90;;;;;;5017911;28;20056;-75
2023/12/04 02:24:27;;;;;;;35.70;22.40;;;0.10;99.90;;;;;;5033803;28;20046;-77
2023/12/04 02:26:59;;;;;;;33.67;21.35;;;0.20;99.90;;;;;;5001299;28;20045;-75
2023/12/04 02:29:36;;;;;;;35.17;22.48;;;0.20;99.90;;;;;;5033409;28;20053;-76
2023/12/04 02:32:05;;;;;;;33.13;21.08;;;0.20;99.90;;;;;;5034145;28;20403;-76
2023/12/04 02:34:33;;;;;;;35.17;22.85;;;0.20;99.90;;;;;;5017128;28;20057;-75
2023/12/04 02:37:01;;;;;;;38.72;23.30;;;0.20;99.90;;;;;;5033692;28;20037;-76
2023/12/04 02:39:27;;;;;;;25.63;15.90;;;0.20;99.90;;;;;;5033867;28;20438;-76
2023/12/04 02:41:52;;;;;;;34.63;22.60;;;0.20;99.90;;;;;;5017732;28;20085;-74
2023/12/04 02:44:18;;;;;;;36.70;22.63;;;0.50;99.90;;;;;;5034875;28;20097;-75
2023/12/04 02:46:44;;;;;;;34.45;22.35;;;0.20;99.90;;;;;;5034415;28;20053;-74
2023/12/04 02:49:10;;;;;;;34.55;21.65;;;0.20;99.90;;;;;;5017415;28;20053;-74
2023/12/04 02:51:35;;;;;;;34.53;22.45;;;0.20;99.90;;;;;;5032899;28;20060;-74
2023/12/04 02:54:01;;;;;;;36.38;22.85;;;0.20;99.90;;;;;;5033614;28;20041;-75
2023/12/04 02:56:27;;;;;;;32.97;20.58;;;0.20;99.90;;;;;;5016889;28;20080;-75
2023/12/04 02:58:52;;;;;;;37.70;22.85;;;0.20;99.90;;;;;;5033784;28;20052;-75
2023/12/04 03:01:18;;;;;;;35.22;22.27;;;0.20;99.90;;;;;;5017025;28;20056;-75
2023/12/04 03:03:44;;;;;;;31.83;21.02;;;0.20;99.90;;;;;;5033785;28;20057;-75
2023/12/04 03:06:09;;;;;;;33.00;20.13;;;0.20;99.90;;;;;;5000832;28;20056;-73
2023/12/04 03:08:36;;;;;;;35.50;22.48;;;0.30;99.90;;;;;;5016514;28;20115;-74
2023/12/04 03:11:03;;;;;;;34.38;22.77;;;0.20;99.90;;;;;;5033318;28;20103;-74
2023/12/04 03:13:29;;;;;;;33.95;21.30;;;0.30;99.90;;;;;;5016861;28;20368;-75
2023/12/04 03:15:54;;;;;;;32.78;21.50;;;0.30;99.90;;;;;;5017053;28;20048;-75
2023/12/04 03:18:20;;;;;;;34.53;22.95;;;0.30;99.90;;;;;;5032689;28;20399;-75
2023/12/04 03:20:46;;;;;;;35.70;21.85;;;0.30;99.90;;;;;;5034187;28;20046;-75
2023/12/04 03:23:11;;;;;;;33.95;22.38;;;1.20;99.90;;;;;;5033174;28;20045;-75
2023/12/04 03:25:37;;;;;;;36.13;23.85;;;0.30;99.90;;;;;;5032890;28;20137;-75
2023/12/04 03:28:03;;;;;;;30.55;21.40;;;0.30;99.90;;;;;;5033434;28;20072;-75
2023/12/04 03:30:28;;;;;;;32.50;21.95;;;0.30;99.90;;;;;;5032524;28;20048;-75
2023/12/04 03:32:54;;;;;;;37.05;22.85;;;1.20;99.90;;;;;;4984043;28;20052;-75
2023/12/04 03:35:20;;;;;;;35.40;23.10;;;0.60;99.90;;;;;;5033068;28;20573;-79
2023/12/04 03:37:45;;;;;;;34.85;23.08;;;0.40;99.90;;;;;;4984125;28;20045;-75
2023/12/04 03:40:11;;;;;;;33.80;22.48;;;0.40;99.90;;;;;;5033865;28;20045;-74
2023/12/04 03:42:37;;;;;;;32.95;22.08;;;0.40;99.90;;;;;;5016262;28;20037;-74
2023/12/04 03:45:03;;;;;;;34.63;22.40;;;0.40;99.90;;;;;;5016391;28;20048;-74
2023/12/04 03:47:29;;;;;;;33.13;22.60;;;0.70;99.90;;;;;;5015967;28;20092;-75
2023/12/04 03:49:55;;;;;;;34.90;21.73;;;0.40;99.90;;;;;;5032916;28;20146;-75
2023/12/04 03:52:20;;;;;;;32.85;20.40;;;0.40;99.90;;;;;;5032848;28;20049;-75
2023/12/04 03:54:46;;;;;;;32.45;20.73;;;0.40;99.90;;;;;;5032376;28;20045;-75
2023/12/04 03:57:12;;;;;;;35.03;21.73;;;0.40;99.90;;;;;;5016061;28;20045;-75
2023/12/04 03:59:37;;;;;;;33.35;22.77;;;0.40;99.90;;;;;;5032411;28;20072;-75
2023/12/04 04:02:03;;;;;;;29.23;19.98;;;0.40;99.90;;;;;;4999812;28;20104;-75
2023/12/04 04:04:29;;;;;;;35.63;23.35;;;0.40;99.90;;;;;;5030908;28;20394;-75
2023/12/04 04:06:55;;;;;;;33.85;22.20;;;0.40;99.90;;;;;;5032566;28;20132;-75
2023/12/04 04:09:20;;;;;;;36.60;22.42;;;0.40;99.90;;;;;;5015974;28;20568;-76
2023/12/04 04:11:46;;;;;;;34.83;21.27;;;0.40;99.90;;;;;;5032236;28;20040;-75
2023/12/04 04:14:12;;;;;;;30.20;19.60;;;0.90;99.90;;;;;;5015993;28;20049;-76
2023/12/04 04:16:37;;;;;;;32.17;21.88;;;0.40;99.90;;;;;;5015377;28;20487;-77
2023/12/04 04:19:03;;;;;;;29.85;21.55;;;0.40;99.90;;;;;;5032466;28;20430;-75
2023/12/04 04:21:29;;;;;;;30.88;19.13;;;0.40;99.90;;;;;;5031854;28;20638;-77
2023/12/04 04:23:54;;;;;;;27.95;16.52;;;0.50;99.90;;;;;;5032536;28;20049;-76
2023/12/04 04:26:20;;;;;;;31.10;19.70;;;0.50;99.90;;;;;;5015522;28;20045;-76
2023/12/04 04:28:46;;;;;;;33.75;22.23;;;0.40;99.90;;;;;;5031954;28;20056;-76
2023/12/04 04:31:11;;;;;;;35.70;23.27;;;0.40;99.90;;;;;;5015885;28;20057;-76
2023/12/04 04:33:37;;;;;;;33.47;21.65;;;0.50;99.90;;;;;;5031552;28;20076;-76
2023/12/04 04:36:03;;;;;;;36.42;21.73;;;0.50;99.90;;;;;;5032134;28;20049;-76
2023/12/04 04:38:29;;;;;;;34.20;21.58;;;0.50;99.90;;;;;;4999134;28;20045;-79
2023/12/04 04:40:54;;;;;;;36.67;23.50;;;0.50;99.90;;;;;;5031954;28;20045;-77
2023/12/04 04:43:20;;;;;;;33.25;22.30;;;0.50;99.90;;;;;;5015719;28;20136;-77
2023/12/04 04:45:46;;;;;;;38.03;23.67;;;0.50;99.90;;;;;;5031444;28;20483;-77
2023/12/04 04:48:12;;;;;;;36.63;23.83;;;0.50;99.90;;;;;;4999441;28;20042;-77
2023/12/04 04:50:37;;;;;;;32.50;21.15;;;0.50;99.90;;;;;;5031923;28;20084;-76
2023/12/04 04:53:03;;;;;;;34.70;23.02;;;0.50;99.90;;;;;;5015750;28;20376;-76
2023/12/04 04:55:30;;;;;;;32.83;21.65;;;0.50;99.90;;;;;;5015505;28;20463;-77
2023/12/04 04:57:56;;;;;;;33.17;22.08;;;0.40;99.90;;;;;;5031390;28;20491;-77
2023/12/04 05:00:21;;;;;;;37.80;23.75;;;0.40;99.90;;;;;;4999114;28;20049;-77
2023/12/04 05:02:47;;;;;;;36.60;22.92;;;0.50;99.90;;;;;;5015361;28;20057;-76
2023/12/04 05:05:13;;;;;;;34.15;22.45;;;0.50;99.90;;;;;;5031838;28;20045;-77
2023/12/04 05:07:38;;;;;;;34.88;23.60;;;0.50;99.90;;;;;;4982741;28;20136;-77
2023/12/04 05:10:04;;;;;;;33.30;23.02;;;0.90;99.90;;;;;;5016006;28;20073;-76
2023/12/04 05:12:30;;;;;;;36.72;22.45;;;0.50;99.90;;;;;;5015691;28;20418;-77
2023/12/04 05:14:56;;;;;;;34.05;21.00;;;0.50;99.90;;;;;;5030976;28;20064;-76
2023/12/04 05:17:21;;;;;;;33.80;22.75;;;0.50;99.90;;;;;;5031678;28;20040;-77
2023/12/04 05:19:47;;;;;;;32.47;23.23;;;0.50;99.90;;;;;;5031100;28;20054;-77
2023/12/04 05:22:13;;;;;;;33.45;22.05;;;1.40;99.90;;;;;;5015305;28;20136;-77
2023/12/04 05:24:38;;;;;;;34.08;20.67;;;0.50;99.90;;;;;;5030738;28;20038;-76
2023/12/04 05:27:04;;;;;;;30.73;21.02;;;0.70;99.90;;;;;;5015169;28;20063;-76
2023/12/04 05:29:30;;;;;;;31.85;19.60;;;0.60;99.90;;;;;;5014836;28;20128;-76
2023/12/04 05:31:57;;;;;;;29.55;20.23;;;0.70;99.90;;;;;;5014859;28;20104;-76
2023/12/04 05:34:23;;;;;;;34.42;22.10;;;0.50;99.90;;;;;;5031352;28;20145;-76
2023/12/04 05:36:49;;;;;;;30.45;20.85;;;0.50;99.90;;;;;;5030762;28;20045;-76
2023/12/04 05:39:14;;;;;;;30.20;19.00;;;0.50;99.90;;;;;;4998523;28;20044;-76
2023/12/04 05:41:40;;;;;;;33.45;22.10;;;0.60;99.90;;;;;;5014164;28;20050;-78
2023/12/04 05:44:06;;;;;;;30.95;20.60;;;0.50;99.90;;;;;;4998535;28;20088;-77
2023/12/04 05:46:32;;;;;;;29.95;20.65;;;0.50;99.90;;;;;;5014668;28;20108;-76
2023/12/04 05:48:58;;;;;;;31.50;20.75;;;1.20;99.90;;;;;;5030889;28;20087;-77
2023/12/04 05:51:23;;;;;;;33.05;21.52;;;0.50;99.90;;;;;;5031985;28;20045;-77
2023/12/04 05:53:49;;;;;;;33.63;21.45;;;0.90;99.90;;;;;;5030582;28;20053;-77
2023/12/04 05:56:15;;;;;;;30.02;19.48;;;0.50;99.90;;;;;;5031196;28;20110;-77
2023/12/04 05:58:40;;;;;;;32.83;21.50;;;0.50;99.90;;;;;;5030842;28;20057;-79
2023/12/04 06:01:07;;;;;;;32.78;20.85;;;0.90;99.90;;;;;;5014165;28;20422;-77
2023/12/04 06:03:33;;;;;;;31.30;20.52;;;0.50;99.90;;;;;;5014774;28;20419;-77
2023/12/04 06:05:58;;;;;;;31.05;19.80;;;0.50;99.90;;;;;;5013714;28;20042;-77
2023/12/04 06:08:24;;;;;;;29.33;19.80;;;0.50;99.90;;;;;;5030963;28;20059;-77
2023/12/04 06:10:50;;;;;;;26.40;17.88;;;0.50;99.90;;;;;;5014309;28;20099;-77
2023/12/04 06:13:15;;;;;;;30.20;20.75;;;0.50;99.90;;;;;;5014647;28;20398;-77
2023/12/04 06:15:41;;;;;;;31.23;18.33;;;0.50;99.90;;;;;;5014572;28;20042;-78
2023/12/04 06:18:07;;;;;;;31.63;19.38;;;0.50;99.90;;;;;;5013882;28;20052;-78
2023/12/04 06:20:33;;;;;;;30.38;20.00;;;0.60;99.90;;;;;;5014607;28;20044;-77
2023/12/04 06:22:59;;;;;;;31.58;20.83;;;0.60;99.90;;;;;;5030759;28;20045;-77
2023/12/04 06:25:25;;;;;;;29.30;20.02;;;0.60;99.90;;;;;;5031016;28;20049;-78
2023/12/04 06:27:51;;;;;;;33.95;20.65;;;0.60;99.90;;;;;;5016178;28;20068;-78
2023/12/04 06:30:17;;;;;;;30.10;20.33;;;0.60;99.90;;;;;;5018386;28;20049;-77
2023/12/04 06:32:43;;;;;;;28.60;19.42;;;0.60;99.90;;;;;;5001693;28;20459;-76
2023/12/04 06:35:10;;;;;;;26.65;18.02;;;0.50;99.90;;;;;;5033540;28;20089;-76
2023/12/04 06:37:38;;;;;;;28.65;19.10;;;0.50;99.90;;;;;;5017998;28;20053;-78
2023/12/04 06:40:06;;;;;;;30.50;19.02;;;0.60;99.90;;;;;;5001234;28;20048;-77
2023/12/04 06:42:32;;;;;;;30.23;19.00;;;0.60;99.90;;;;;;5017450;28;20052;-78
2023/12/04 06:44:57;;;;;;;31.77;21.35;;;0.50;99.90;;;;;;5033765;28;20037;-76
2023/12/04 06:47:23;;;;;;;30.00;18.08;;;0.50;99.90;;;;;;5034145;28;20065;-77
2023/12/04 06:49:49;;;;;;;30.88;19.95;;;0.60;99.90;;;;;;5017445;28;20407;-79
2023/12/04 06:52:15;;;;;;;27.75;18.42;;;0.60;99.90;;;;;;5033915;28;20081;-76
2023/12/04 06:54:40;;;;;;;30.92;18.52;;;0.60;99.90;;;;;;5017421;28;20045;-77
2023/12/04 06:57:06;;;;;;;28.95;17.83;;;0.60;99.90;;;;;;5033156;28;20045;-77
2023/12/04 06:59:32;;;;;;;28.15;19.08;;;0.60;99.90;;;;;;5017264;28;20425;-76
2023/12/04 07:01:57;;;;;;;31.45;19.83;;;0.80;99.90;;;;;;5016916;28;20400;-77
2023/12/04 07:04:23;;;;;;;30.13;20.23;;;0.60;99.90;;;;;;5001040;28;20494;-76
2023/12/04 07:06:49;;;;;;;33.40;19.00;;;0.60;99.90;;;;;;5033182;28;20449;-77
2023/12/04 07:09:16;;;;;;;29.25;19.85;;;0.60;99.90;;;;;;5016867;28;20046;-77
2023/12/04 07:11:42;;;;;;;30.65;20.20;;;0.60;99.90;;;;;;5017146;28;20103;-77
2023/12/04 07:14:09;;;;;;;27.35;18.27;;;0.90;99.90;;;;;;5016715;28;20053;-77
2023/12/04 07:16:44;;;;;;;30.83;20.73;;;0.60;99.90;;;;;;5033283;28;20064;-77
2023/12/04 07:19:10;;;;;;;30.23;19.00;;;0.80;99.90;;;;;;5033009;28;20045;-77
2023/12/04 07:21:37;;;;;;;28.23;19.08;;;0.60;99.90;;;;;;5033138;28;20561;-76
2023/12/04 07:24:03;;;;;;;30.63;18.77;;;0.60;99.90;;;;;;5000042;28;20510;-77
2023/12/04 07:26:31;;;;;;;25.33;17.45;;;0.60;99.90;;;;;;5017056;28;20091;-74
2023/12/04 07:28:57;;;;;;;29.20;18.40;;;0.50;99.90;;;;;;5016567;28;20101;-77
2023/12/04 07:31:22;;;;;;;28.35;19.05;;;0.50;99.90;;;;;;5017172;28;20390;-75
2023/12/04 07:33:48;;;;;;;28.02;17.67;;;0.70;99.90;;;;;;5016265;28;20384;-79
2023/12/04 07:36:14;;;;;;;28.35;19.25;;;0.60;99.90;;;;;;5016390;28;20049;-79
2023/12/04 07:38:39;;;;;;;28.67;19.40;;;0.60;99.90;;;;;;5032867;28;20057;-78
2023/12/04 07:41:05;;;;;;;34.95;17.48;;;1.00;99.90;;;;;;4999773;28;20132;-78
2023/12/04 07:43:31;;;;;;;26.10;16.83;;;0.60;99.90;;;;;;4984169;28;20046;-77
2023/12/04 07:45:57;;;;;;;27.10;17.98;;;0.60;99.90;;;;;;5015770;28;20049;-80
2023/12/04 07:48:23;;;;;;;26.48;17.42;;;0.60;99.90;;;;;;5033264;28;20048;-79
2023/12/04 07:50:49;;;;;;;26.55;17.65;;;0.60;99.90;;;;;;5032894;28;20511;-78
2023/12/04 07:53:14;;;;;;;27.25;17.73;;;0.60;99.90;;;;;;5016394;28;20057;-77
2023/12/04 07:55:40;;;;;;;26.40;19.17;;;0.60;99.90;;;;;;5016675;28;20136;-77
2023/12/04 07:58:06;;;;;;;27.13;17.88;;;0.60;99.90;;;;;;5032398;28;20045;-78
2023/12/04 08:00:32;;;;;;;28.05;18.98;;;0.50;99.90;;;;;;5032610;28;20053;-79
2023/12/04 08:02:58;;;;;;;25.40;16.65;;;0.60;99.90;;;;;;5014798;28;20056;-79
2023/12/04 08:05:24;;;;;;;25.17;18.05;;;0.60;99.90;;;;;;5032009;28;20041;-79
2023/12/04 08:07:49;;;;;;;25.33;17.25;;;0.60;99.90;;;;;;5032349;28;20512;-77
2023/12/04 08:10:16;;;;;;;22.25;15.13;;;0.70;99.90;;;;;;5015564;28;20399;-79
2023/12/04 08:12:45;;;;;;;26.27;17.55;;;0.60;99.90;;;;;;5016121;28;20049;-80
2023/12/04 08:15:11;;;;;;;24.38;16.73;;;0.60;99.90;;;;;;5031951;28;20498;-80
2023/12/04 08:17:37;;;;;;;24.13;16.30;;;0.70;99.90;;;;;;4999373;28;20056;-78
2023/12/04 08:20:04;;;;;;;26.70;17.05;;;0.70;99.90;;;;;;5031528;28;20042;-78
2023/12/04 08:22:29;;;;;;;31.85;18.70;;;0.70;99.90;;;;;;4999949;28;20103;-79
2023/12/04 08:24:55;;;;;;;23.60;16.08;;;0.70;99.90;;;;;;5032191;28;20049;-79
2023/12/04 08:27:21;;;;;;;25.23;16.70;;;0.70;99.90;;;;;;5015378;28;20038;-79
2023/12/04 08:29:46;;;;;;;23.40;15.70;;;0.70;99.90;;;;;;5032894;28;20045;-79
2023/12/04 08:32:12;;;;;;;23.25;15.45;;;1.10;99.90;;;;;;5015492;28;20071;-79
2023/12/04 08:34:38;;;;;;;21.85;14.90;;;0.70;99.90;;;;;;4998366;28;20111;-81
2023/12/04 08:37:04;;;;;;;25.08;15.80;;;0.80;99.90;;;;;;5015054;28;20057;-79
2023/12/04 08:39:29;;;;;;;24.42;15.65;;;0.80;99.90;;;;;;5032092;28;20052;-79
2023/12/04 08:41:55;;;;;;;23.13;15.70;;;0.90;99.90;;;;;;4999270;28;20060;-81
2023/12/04 08:44:21;;;;;;;23.55;15.45;;;0.80;99.90;;;;;;5031645;28;20225;-82
2023/12/04 08:46:46;;;;;;;24.65;14.73;;;1.30;99.90;;;;;;5032746;28;20061;-81
2023/12/04 08:49:12;;;;;;;21.52;14.95;;;0.80;99.90;;;;;;5015339;28;20056;-78
2023/12/04 08:51:38;;;;;;;21.58;14.88;;;0.80;99.90;;;;;;5031361;28;20560;-79
2023/12/04 08:54:04;;;;;;;20.65;14.93;;;0.90;99.90;;;;;;5015760;28;20171;-80
2023/12/04 08:56:30;;;;;;;19.40;13.85;;;0.90;99.90;;;;;;5015016;28;20072;-80
2023/12/04 08:58:57;;;;;;;18.88;12.23;;;0.90;99.90;;;;;;4999013;28;20096;-80
2023/12/04 09:01:23;;;;;;;21.65;14.90;;;0.90;99.90;;;;;;5015298;28;20175;-79
2023/12/04 09:03:49;;;;;;;19.45;12.68;;;1.00;99.90;;;;;;5015236;28;20136;-80
2023/12/04 09:06:15;;;;;;;18.25;12.07;;;1.00;99.90;;;;;;5014549;28;20146;-78
2023/12/04 09:08:41;;;;;;;20.17;12.93;;;1.00;99.90;;;;;;5015446;28;20061;-80
2023/12/04 09:11:07;;;;;;;22.38;14.52;;;1.00;99.90;;;;;;5015113;28;20037;-78
2023/12/04 09:13:33;;;;;;;22.20;14.25;;;1.00;99.90;;;;;;5014977;28;20459;-78
2023/12/04 09:15:59;;;;;;;17.08;11.93;;;1.30;99.90;;;;;;5015062;28;20060;-78
2023/12/04 09:18:25;;;;;;;19.33;13.13;;;1.00;99.90;;;;;;5030942;28;20506;-79
2023/12/04 09:20:51;;;;;;;23.38;13.73;;;1.00;99.90;;;;;;5015163;28;20053;-78
2023/12/04 09:23:16;;;;;;;18.92;12.30;;;1.00;99.90;;;;;;4982127;28;20132;-79
2023/12/04 09:25:42;;;;;;;19.90;13.85;;;1.10;99.90;;;;;;4995792;28;20049;-79
2023/12/04 09:28:08;;;;;;;18.35;13.23;;;1.10;99.90;;;;;;5013809;28;20076;-78
2023/12/04 09:30:35;;;;;;;17.55;12.73;;;1.10;99.90;;;;;;5014303;28;20053;-78
2023/12/04 09:33:01;;;;;;;20.35;13.10;;;1.10;99.90;;;;;;5030430;28;20498;-79
2023/12/04 09:35:27;;;;;;;20.10;14.18;;;1.70;99.90;;;;;;4997891;28;20064;-79
2023/12/04 09:37:54;;;;;;;17.80;13.20;;;1.10;99.90;;;;;;5014722;28;20041;-79
2023/12/04 09:40:19;;;;;;;16.17;11.02;;;1.10;99.90;;;;;;5014677;28;20057;-79
2023/12/04 09:42:45;;;;;;;17.20;10.75;;;1.10;99.90;;;;;;5014492;28;20045;-79
2023/12/04 09:45:12;;;;;;;16.25;12.27;;;1.10;99.90;;;;;;5029925;28;20050;-79
2023/12/04 09:47:38;;;;;;;17.83;12.85;;;1.10;99.90;;;;;;5030166;28;20053;-79
2023/12/04 09:50:05;;;;;;;15.98;11.50;;;1.20;99.90;;;;;;5013624;28;20056;-77
2023/12/04 09:52:34;;;;;;;15.73;11.85;;;1.20;99.90;;;;;;5014359;28;20115;-76
2023/12/04 09:54:59;;;;;;;17.98;11.55;;;1.80;99.90;;;;;;5013827;28;20049;-78
2023/12/04 09:57:26;;;;;;;18.90;11.45;;;1.30;99.90;;;;;;5013546;28;20100;-78
2023/12/04 09:59:52;;;;;;;19.45;12.00;;;1.50;99.90;;;;;;4997750;28;20095;-77
2023/12/04 10:02:22;;;;;;;16.00;11.02;;;1.30;99.90;;;;;;5033202;28;20042;-76
2023/12/04 10:04:48;;;;;;;15.63;9.75;;;1.30;99.90;;;;;;5034486;28;20483;-76
2023/12/04 10:07:13;;;;;;;15.75;9.80;;;1.30;99.90;;;;;;5017577;28;20414;-76
2023/12/04 10:09:39;;;;;;;20.70;11.38;;;1.40;99.90;;;;;;5034689;28;20060;-76
2023/12/04 10:12:06;;;;;;;18.63;10.32;;;1.40;99.90;;;;;;5034563;28;20042;-77
2023/12/04 10:14:32;;;;;;;16.65;10.52;;;1.40;99.90;;;;;;5034180;28;20050;-76
2023/12/04 10:16:59;;;;;;;17.23;10.82;;;1.40;99.90;;;;;;5018206;28;20038;-77
2023/12/04 10:19:31;;;;;;;14.65;10.70;;;1.50;99.90;;;;;;5035122;28;20178;-77
2023/12/04 10:21:59;;;;;;;15.18;10.48;;;1.50;99.90;;;;;;5034205;28;20045;-75
2023/12/04 10:24:32;;;;;;;17.30;11.27;;;1.90;99.90;;;;;;5034029;28;20124;-76
2023/12/04 10:26:59;;;;;;;14.13;9.88;;;1.60;99.90;;;;;;5016930;28;20080;-76
2023/12/04 10:29:32;;;;;;;17.30;10.65;;;1.60;99.90;;;;;;5000591;28;20053;-75
2023/12/04 10:31:59;;;;;;;15.85;10.50;;;1.60;99.90;;;;;;5017111;28;20049;-76
2023/12/04 10:34:26;;;;;;;13.35;8.77;;;1.70;99.90;;;;;;5033564;28;20089;-76
2023/12/04 10:36:52;;;;;;;12.60;8.38;;;1.70;99.90;;;;;;5017517;28;20057;-75
2023/12/04 10:39:18;;;;;;;15.57;9.40;;;1.80;99.90;;;;;;5030515;28;20045;-75
2023/12/04 10:41:44;;;;;;;15.27;10.32;;;1.80;99.90;;;;;;5032193;28;20067;-74
2023/12/04 10:44:15;;;;;;;15.40;9.98;;;1.80;99.90;;;;;;5033501;28;20111;-74
2023/12/04 10:46:43;;;;;;;15.98;11.20;;;1.80;99.90;;;;;;5033187;28;20068;-75
2023/12/04 10:49:10;;;;;;;14.32;9.50;;;1.80;99.90;;;;;;5033952;28;20046;-76
2023/12/04 10:51:38;;;;;;;15.85;10.00;;;2.00;99.90;;;;;;5032924;28;20056;-75
2023/12/04 10:54:05;;;;;;;13.15;8.77;;;1.80;99.90;;;;;;5034613;28;20132;-75
2023/12/04 10:56:38;;;;;;;14.98;10.93;;;1.80;99.90;;;;;;5033163;28;20045;-75
2023/12/04 10:59:10;;;;;;;14.88;9.75;;;1.80;99.90;;;;;;5033343;28;20458;-76
2023/12/04 11:01:37;;;;;;;12.18;9.00;;;1.80;99.90;;;;;;5016441;28;20063;-73
2023/12/04 11:04:06;;;;;;;14.35;9.27;;;1.80;99.90;;;;;;5033434;28;20049;-76
2023/12/04 11:06:36;;;;;;;13.80;9.98;;;1.80;99.90;;;;;;5034023;28;20044;-74
2023/12/04 11:09:04;;;;;;;13.80;9.27;;;1.80;99.90;;;;;;5032753;28;20124;-75
2023/12/04 11:11:36;;;;;;;15.95;9.52;;;1.80;99.90;;;;;;5015774;28;20057;-75
2023/12/04 11:14:04;;;;;;;15.48;10.25;;;1.80;99.90;;;;;;5033645;28;20041;-75
2023/12/04 11:16:36;;;;;;;21.52;9.40;;;1.80;99.90;;;;;;5033129;28;20049;-75
2023/12/04 11:19:22;;;;;;;13.45;9.85;;;1.80;99.90;;;;;;5033281;28;20045;-73
2023/12/04 11:21:48;;;;;;;15.48;9.32;;;1.90;99.90;;;;;;5015574;28;20061;-74
2023/12/04 11:24:14;;;;;;;17.98;10.18;;;2.10;99.90;;;;;;5034249;28;20060;-76
2023/12/04 11:26:41;;;;;;;12.45;9.02;;;2.30;99.90;;;;;;5032286;28;20491;-76
2023/12/04 11:29:09;;;;;;;14.98;9.70;;;2.00;99.90;;;;;;5033185;28;20045;-75
2023/12/04 11:31:36;;;;;;;13.40;9.50;;;2.00;99.90;;;;;;5032231;28;20045;-75
2023/12/04 11:34:03;;;;;;;14.75;8.77;;;2.00;99.90;;;;;;5032742;28;20049;-76
2023/12/04 11:36:29;;;;;;;14.10;9.48;;;2.10;99.90;;;;;;5016501;28;20088;-75
2023/12/04 11:38:56;;;;;;;13.63;9.25;;;2.10;99.90;;;;;;5033754;28;20495;-75
2023/12/04 11:41:23;;;;;;;12.23;8.88;;;2.10;99.90;;;;;;5033549;28;20124;-75
2023/12/04 11:43:50;;;;;;;12.65;8.32;;;2.10;99.90;;;;;;5032684;28;20491;-75
2023/12/04 11:46:22;;;;;;;13.10;9.20;;;2.10;99.90;;;;;;5032621;28;20401;-75
2023/12/04 11:48:48;;;;;;;12.40;7.55;;;2.10;99.90;;;;;;5000087;28;20471;-75
2023/12/04 11:51:34;;;;;;;13.80;9.55;;;2.10;99.90;;;;;;5032504;28;20499;-75
2023/12/04 11:54:00;;;;;;;13.90;9.40;;;2.20;99.90;;;;;;5033748;28;20138;-75
2023/12/04 11:56:26;;;;;;;14.60;9.95;;;2.20;99.90;;;;;;5032635;28;20084;-74
2023/12/04 11:58:51;;;;;;;13.55;9.50;;;2.20;99.90;;;;;;5032994;28;20053;-74
2023/12/04 12:01:18;;;;;;;15.63;10.45;;;2.20;99.90;;;;;;5032576;28;20081;-74
2023/12/04 12:03:44;;;;;;;15.68;10.40;;;2.20;99.90;;;;;;5031803;28;20057;-74
2023/12/04 12:06:09;;;;;;;13.57;10.07;;;2.20;99.90;;;;;;5014677;28;20061;-73
2023/12/04 12:08:35;;;;;;;14.35;10.10;;;2.30;99.90;;;;;;5032625;28;20046;-75
2023/12/04 12:11:02;;;;;;;13.38;9.95;;;2.20;99.90;;;;;;5000144;28;20064;-76
2023/12/04 12:13:28;;;;;;;13.80;9.45;;;2.20;99.90;;;;;;5016049;28;20041;-76
2023/12/04 12:15:53;;;;;;;13.93;9.85;;;2.50;99.90;;;;;;5031893;28;20099;-75
2023/12/04 12:18:21;;;;;;;17.92;10.50;;;2.20;99.90;;;;;;5033020;28;20057;-74
2023/12/04 12:20:47;;;;;;;16.20;9.93;;;2.10;99.90;;;;;;5031973;28;20087;-75
2023/12/04 12:23:13;;;;;;;14.02;9.68;;;2.20;99.90;;;;;;4999264;28;20103;-75
2023/12/04 12:25:38;;;;;;;13.52;9.38;;;2.10;99.90;;;;;;5014315;28;20037;-74
2023/12/04 12:28:05;;;;;;;14.60;10.57;;;2.10;99.90;;;;;;5015732;28;20390;-74
2023/12/04 12:30:32;;;;;;;16.48;9.77;;;2.10;99.90;;;;;;5031863;28;20041;-74
2023/12/04 12:32:57;;;;;;;14.27;9.07;;;1.50;99.90;;;;;;5031821;28;20490;-73